sensor_id;sensor_type;location;lat;lon;timestamp;P1;durP1;ratioP1;P2;durP2;ratioP2
53674;SDS011;39574;50.534;8.500;2022-10-16T00:03:42;2.5;;;0.8;;
53674;SDS011;39574;50.534;8.500;2022-10-16T00:08:41;2.1;;;0.7;;
53674;SDS011;39574;50.534;8.500;2022-10-16T00:13:41;2.1;;;0.7;;
53674;SDS011;39574;50.534;8.500;2022-10-16T00:18:40;1.8;;;0.7;;
53674;SDS011;39574;50.534;8.500;2022-10-16T00:23:39;1.9;;;0.7;;
53674;SDS011;39574;50.534;8.500;2022-10-16T00:28:38;1.9;;;0.8;;
53674;SDS011;39574;50.534;8.500;2022-10-16T00:33:38;2.4;;;0.9;;
53674;SDS011;39574;50.534;8.500;2022-10-16T00:38:37;2.1;;;0.8;;
53674;SDS011;39574;50.534;8.500;2022-10-16T00:43:38;2.2;;;0.8;;
53674;SDS011;39574;50.534;8.500;2022-10-16T00:48:36;2.1;;;0.8;;
53674;SDS011;39574;50.534;8.500;2022-10-16T00:53:35;3.8;;;1.6;;
53674;SDS011;39574;50.534;8.500;2022-10-16T00:58:34;4.2;;;1.8;;
53674;SDS011;39574;50.534;8.500;2022-10-16T01:03:35;4.7;;;1.8;;
53674;SDS011;39574;50.534;8.500;2022-10-16T01:08:34;4.6;;;1.6;;
53674;SDS011;39574;50.534;8.500;2022-10-16T01:13:33;4.3;;;1.2;;
53674;SDS011;39574;50.534;8.500;2022-10-16T01:18:33;3.8;;;1.1;;
53674;SDS011;39574;50.534;8.500;2022-10-16T01:23:35;3.9;;;1.0;;
53674;SDS011;39574;50.534;8.500;2022-10-16T01:28:31;4.2;;;1.0;;
53674;SDS011;39574;50.534;8.500;2022-10-16T01:33:30;4.3;;;1.0;;
53674;SDS011;39574;50.534;8.500;2022-10-16T01:38:29;4.6;;;0.9;;
53674;SDS011;39574;50.534;8.500;2022-10-16T01:43:28;4.0;;;0.8;;
53674;SDS011;39574;50.534;8.500;2022-10-16T01:48:26;5.5;;;1.5;;
53674;SDS011;39574;50.534;8.500;2022-10-16T01:53:26;4.5;;;1.6;;
53674;SDS011;39574;50.534;8.500;2022-10-16T01:58:25;4.3;;;1.4;;
53674;SDS011;39574;50.534;8.500;2022-10-16T02:03:24;3.6;;;1.3;;
53674;SDS011;39574;50.534;8.500;2022-10-16T02:08:24;3.1;;;1.0;;
53674;SDS011;39574;50.534;8.500;2022-10-16T02:13:23;3.0;;;1.0;;
53674;SDS011;39574;50.534;8.500;2022-10-16T02:18:22;2.7;;;0.9;;
53674;SDS011;39574;50.534;8.500;2022-10-16T02:23:23;3.8;;;1.1;;
53674;SDS011;39574;50.534;8.500;2022-10-16T02:28:22;5.3;;;1.2;;
53674;SDS011;39574;50.534;8.500;2022-10-16T02:33:20;6.2;;;1.3;;
53674;SDS011;39574;50.534;8.500;2022-10-16T02:38:19;5.3;;;1.2;;
53674;SDS011;39574;50.534;8.500;2022-10-16T02:43:18;4.4;;;1.1;;
53674;SDS011;39574;50.534;8.500;2022-10-16T02:48:17;4.7;;;1.6;;
53674;SDS011;39574;50.534;8.500;2022-10-16T02:53:17;5.0;;;1.6;;
53674;SDS011;39574;50.534;8.500;2022-10-16T02:58:16;4.7;;;1.5;;
53674;SDS011;39574;50.534;8.500;2022-10-16T03:03:15;4.2;;;1.4;;
53674;SDS011;39574;50.534;8.500;2022-10-16T03:08:14;3.1;;;1.2;;
53674;SDS011;39574;50.534;8.500;2022-10-16T03:13:14;2.8;;;1.2;;
53674;SDS011;39574;50.534;8.500;2022-10-16T03:18:13;2.9;;;1.1;;
53674;SDS011;39574;50.534;8.500;2022-10-16T03:23:12;3.0;;;1.0;;
53674;SDS011;39574;50.534;8.500;2022-10-16T03:28:12;3.0;;;0.9;;
53674;SDS011;39574;50.534;8.500;2022-10-16T03:33:11;4.3;;;0.9;;
53674;SDS011;39574;50.534;8.500;2022-10-16T03:38:10;3.4;;;0.8;;
53674;SDS011;39574;50.534;8.500;2022-10-16T03:43:09;2.5;;;0.7;;
53674;SDS011;39574;50.534;8.500;2022-10-16T03:48:08;1.8;;;0.6;;
53674;SDS011;39574;50.534;8.500;2022-10-16T03:53:08;1.1;;;0.5;;
53674;SDS011;39574;50.534;8.500;2022-10-16T03:58:07;1.4;;;0.5;;
53674;SDS011;39574;50.534;8.500;2022-10-16T04:03:06;1.6;;;0.6;;
53674;SDS011;39574;50.534;8.500;2022-10-16T04:08:06;1.4;;;0.6;;
53674;SDS011;39574;50.534;8.500;2022-10-16T04:13:05;2.1;;;0.5;;
53674;SDS011;39574;50.534;8.500;2022-10-16T04:18:04;1.8;;;0.4;;
53674;SDS011;39574;50.534;8.500;2022-10-16T04:23:03;1.8;;;0.4;;
53674;SDS011;39574;50.534;8.500;2022-10-16T04:28:02;1.4;;;0.4;;
53674;SDS011;39574;50.534;8.500;2022-10-16T04:33:02;1.3;;;0.4;;
53674;SDS011;39574;50.534;8.500;2022-10-16T04:38:01;1.7;;;0.5;;
53674;SDS011;39574;50.534;8.500;2022-10-16T04:43:00;1.6;;;0.5;;
53674;SDS011;39574;50.534;8.500;2022-10-16T04:47:59;2.1;;;0.7;;
53674;SDS011;39574;50.534;8.500;2022-10-16T04:52:58;3.1;;;1.2;;
53674;SDS011;39574;50.534;8.500;2022-10-16T04:57:58;2.5;;;1.1;;
53674;SDS011;39574;50.534;8.500;2022-10-16T05:02:57;2.0;;;1.0;;
53674;SDS011;39574;50.534;8.500;2022-10-16T05:07:56;2.7;;;0.9;;
53674;SDS011;39574;50.534;8.500;2022-10-16T05:12:55;3.1;;;0.9;;
53674;SDS011;39574;50.534;8.500;2022-10-16T05:17:55;3.3;;;0.9;;
53674;SDS011;39574;50.534;8.500;2022-10-16T05:22:54;3.2;;;0.9;;
53674;SDS011;39574;50.534;8.500;2022-10-16T05:27:53;2.6;;;1.0;;
53674;SDS011;39574;50.534;8.500;2022-10-16T05:32:52;2.7;;;1.0;;
53674;SDS011;39574;50.534;8.500;2022-10-16T05:37:52;2.6;;;1.0;;
53674;SDS011;39574;50.534;8.500;2022-10-16T05:42:54;3.1;;;1.1;;
53674;SDS011;39574;50.534;8.500;2022-10-16T05:47:50;3.1;;;1.1;;
53674;SDS011;39574;50.534;8.500;2022-10-16T05:52:49;3.1;;;1.1;;
53674;SDS011;39574;50.534;8.500;2022-10-16T05:57:49;2.9;;;1.3;;
53674;SDS011;39574;50.534;8.500;2022-10-16T06:02:48;3.4;;;1.4;;
53674;SDS011;39574;50.534;8.500;2022-10-16T06:07:47;4.1;;;1.5;;
53674;SDS011;39574;50.534;8.500;2022-10-16T06:12:46;3.5;;;1.3;;
53674;SDS011;39574;50.534;8.500;2022-10-16T06:17:46;3.3;;;1.1;;
53674;SDS011;39574;50.534;8.500;2022-10-16T06:22:45;3.7;;;1.1;;
53674;SDS011;39574;50.534;8.500;2022-10-16T06:27:44;3.8;;;1.3;;
53674;SDS011;39574;50.534;8.500;2022-10-16T06:32:43;3.2;;;1.1;;
53674;SDS011;39574;50.534;8.500;2022-10-16T06:37:43;3.9;;;1.8;;
53674;SDS011;39574;50.534;8.500;2022-10-16T06:42:42;4.2;;;1.7;;
53674;SDS011;39574;50.534;8.500;2022-10-16T06:47:41;3.5;;;1.6;;
53674;SDS011;39574;50.534;8.500;2022-10-16T06:52:40;4.7;;;1.8;;
53674;SDS011;39574;50.534;8.500;2022-10-16T06:57:40;5.0;;;1.9;;
53674;SDS011;39574;50.534;8.500;2022-10-16T07:02:39;5.0;;;1.9;;
53674;SDS011;39574;50.534;8.500;2022-10-16T07:07:38;5.3;;;1.9;;
53674;SDS011;39574;50.534;8.500;2022-10-16T07:12:37;4.8;;;1.8;;
53674;SDS011;39574;50.534;8.500;2022-10-16T07:17:37;4.1;;;1.9;;
53674;SDS011;39574;50.534;8.500;2022-10-16T07:22:36;3.6;;;1.7;;
53674;SDS011;39574;50.534;8.500;2022-10-16T07:27:35;3.4;;;1.6;;
53674;SDS011;39574;50.534;8.500;2022-10-16T07:32:34;3.5;;;1.7;;
53674;SDS011;39574;50.534;8.500;2022-10-16T07:37:34;3.0;;;1.6;;
53674;SDS011;39574;50.534;8.500;2022-10-16T07:42:33;3.3;;;1.5;;
53674;SDS011;39574;50.534;8.500;2022-10-16T07:47:32;3.8;;;1.5;;
53674;SDS011;39574;50.534;8.500;2022-10-16T07:52:32;3.6;;;1.4;;
53674;SDS011;39574;50.534;8.500;2022-10-16T07:57:31;3.2;;;1.4;;
53674;SDS011;39574;50.534;8.500;2022-10-16T08:02:31;4.2;;;1.5;;
53674;SDS011;39574;50.534;8.500;2022-10-16T08:07:30;3.8;;;1.5;;
53674;SDS011;39574;50.534;8.500;2022-10-16T08:12:29;4.5;;;1.7;;
53674;SDS011;39574;50.534;8.500;2022-10-16T08:17:28;4.5;;;1.9;;
53674;SDS011;39574;50.534;8.500;2022-10-16T08:22:27;7.0;;;3.0;;
53674;SDS011;39574;50.534;8.500;2022-10-16T08:27:30;6.7;;;3.2;;
53674;SDS011;39574;50.534;8.500;2022-10-16T08:32:26;6.7;;;3.8;;
53674;SDS011;39574;50.534;8.500;2022-10-16T08:37:29;6.0;;;3.6;;
53674;SDS011;39574;50.534;8.500;2022-10-16T08:42:29;6.0;;;3.7;;
53674;SDS011;39574;50.534;8.500;2022-10-16T08:47:25;6.6;;;3.7;;
53674;SDS011;39574;50.534;8.500;2022-10-16T08:52:23;5.7;;;3.4;;
53674;SDS011;39574;50.534;8.500;2022-10-16T08:57:24;4.5;;;2.8;;
53674;SDS011;39574;50.534;8.500;2022-10-16T09:02:24;4.6;;;2.5;;
53674;SDS011;39574;50.534;8.500;2022-10-16T09:07:23;4.5;;;2.4;;
53674;SDS011;39574;50.534;8.500;2022-10-16T09:12:21;4.3;;;2.1;;
53674;SDS011;39574;50.534;8.500;2022-10-16T09:17:23;3.7;;;2.1;;
53674;SDS011;39574;50.534;8.500;2022-10-16T09:22:19;3.7;;;1.9;;
53674;SDS011;39574;50.534;8.500;2022-10-16T09:27:19;3.4;;;1.7;;
53674;SDS011;39574;50.534;8.500;2022-10-16T09:32:19;3.2;;;1.6;;
53674;SDS011;39574;50.534;8.500;2022-10-16T09:37:18;3.4;;;1.5;;
53674;SDS011;39574;50.534;8.500;2022-10-16T09:42:17;4.2;;;1.5;;
53674;SDS011;39574;50.534;8.500;2022-10-16T09:47:18;4.2;;;1.5;;
53674;SDS011;39574;50.534;8.500;2022-10-16T09:52:20;4.1;;;1.4;;
53674;SDS011;39574;50.534;8.500;2022-10-16T09:57:15;4.0;;;1.4;;
53674;SDS011;39574;50.534;8.500;2022-10-16T10:02:15;3.7;;;1.3;;
53674;SDS011;39574;50.534;8.500;2022-10-16T10:07:18;3.5;;;1.4;;
53674;SDS011;39574;50.534;8.500;2022-10-16T10:12:17;3.0;;;1.4;;
53674;SDS011;39574;50.534;8.500;2022-10-16T10:17:14;3.3;;;1.4;;
53674;SDS011;39574;50.534;8.500;2022-10-16T10:22:13;3.2;;;1.3;;
53674;SDS011;39574;50.534;8.500;2022-10-16T10:27:13;3.0;;;1.2;;
53674;SDS011;39574;50.534;8.500;2022-10-16T10:32:15;5.3;;;2.6;;
53674;SDS011;39574;50.534;8.500;2022-10-16T10:37:14;5.0;;;2.5;;
53674;SDS011;39574;50.534;8.500;2022-10-16T10:42:14;7.8;;;3.7;;
53674;SDS011;39574;50.534;8.500;2022-10-16T10:47:12;5.8;;;2.7;;
53674;SDS011;39574;50.534;8.500;2022-10-16T10:52:13;4.4;;;1.8;;
53674;SDS011;39574;50.534;8.500;2022-10-16T10:57:10;2.9;;;1.3;;
53674;SDS011;39574;50.534;8.500;2022-10-16T11:02:10;1.9;;;0.9;;
53674;SDS011;39574;50.534;8.500;2022-10-16T11:07:09;2.2;;;1.0;;
53674;SDS011;39574;50.534;8.500;2022-10-16T11:12:09;2.0;;;0.9;;
53674;SDS011;39574;50.534;8.500;2022-10-16T11:17:08;3.2;;;1.0;;
53674;SDS011;39574;50.534;8.500;2022-10-16T11:22:09;2.6;;;0.9;;
53674;SDS011;39574;50.534;8.500;2022-10-16T11:27:07;1.8;;;0.6;;
53674;SDS011;39574;50.534;8.500;2022-10-16T11:32:06;1.7;;;0.6;;
53674;SDS011;39574;50.534;8.500;2022-10-16T11:37:08;1.4;;;0.5;;
53674;SDS011;39574;50.534;8.500;2022-10-16T11:42:08;1.4;;;0.5;;
53674;SDS011;39574;50.534;8.500;2022-10-16T11:47:09;1.4;;;0.5;;
53674;SDS011;39574;50.534;8.500;2022-10-16T11:52:06;1.1;;;0.5;;
53674;SDS011;39574;50.534;8.500;2022-10-16T11:57:07;1.3;;;0.5;;
53674;SDS011;39574;50.534;8.500;2022-10-16T12:02:11;1.1;;;0.5;;
53674;SDS011;39574;50.534;8.500;2022-10-16T12:07:04;1.6;;;0.5;;
53674;SDS011;39574;50.534;8.500;2022-10-16T12:12:03;1.3;;;0.5;;
53674;SDS011;39574;50.534;8.500;2022-10-16T12:17:03;1.5;;;0.5;;
53674;SDS011;39574;50.534;8.500;2022-10-16T12:22:03;1.3;;;0.4;;
53674;SDS011;39574;50.534;8.500;2022-10-16T12:27:03;3.5;;;1.6;;
53674;SDS011;39574;50.534;8.500;2022-10-16T12:32:03;6.5;;;3.4;;
53674;SDS011;39574;50.534;8.500;2022-10-16T12:37:10;5.5;;;2.8;;
53674;SDS011;39574;50.534;8.500;2022-10-16T12:42:02;5.1;;;2.7;;
53674;SDS011;39574;50.534;8.500;2022-10-16T12:47:01;4.0;;;2.1;;
53674;SDS011;39574;50.534;8.500;2022-10-16T12:52:00;4.8;;;2.5;;
53674;SDS011;39574;50.534;8.500;2022-10-16T12:57:04;4.1;;;2.1;;
53674;SDS011;39574;50.534;8.500;2022-10-16T13:02:07;3.1;;;1.5;;
53674;SDS011;39574;50.534;8.500;2022-10-16T13:07:00;2.5;;;1.0;;
53674;SDS011;39574;50.534;8.500;2022-10-16T13:12:03;1.9;;;0.7;;
53674;SDS011;39574;50.534;8.500;2022-10-16T13:17:00;1.9;;;0.7;;
53674;SDS011;39574;50.534;8.500;2022-10-16T13:22:01;1.9;;;0.7;;
53674;SDS011;39574;50.534;8.500;2022-10-16T13:26:59;2.0;;;0.7;;
53674;SDS011;39574;50.534;8.500;2022-10-16T13:31:57;1.5;;;0.5;;
53674;SDS011;39574;50.534;8.500;2022-10-16T13:36:57;1.3;;;0.4;;
53674;SDS011;39574;50.534;8.500;2022-10-16T13:41:58;1.1;;;0.4;;
53674;SDS011;39574;50.534;8.500;2022-10-16T13:46:58;1.4;;;0.4;;
53674;SDS011;39574;50.534;8.500;2022-10-16T13:51:56;1.2;;;0.5;;
53674;SDS011;39574;50.534;8.500;2022-10-16T13:56:56;1.4;;;0.5;;
53674;SDS011;39574;50.534;8.500;2022-10-16T14:01:55;1.8;;;0.5;;
53674;SDS011;39574;50.534;8.500;2022-10-16T14:06:55;2.3;;;0.5;;
53674;SDS011;39574;50.534;8.500;2022-10-16T14:11:56;2.0;;;0.5;;
53674;SDS011;39574;50.534;8.500;2022-10-16T14:16:54;1.5;;;0.5;;
53674;SDS011;39574;50.534;8.500;2022-10-16T14:21:54;4.6;;;3.0;;
53674;SDS011;39574;50.534;8.500;2022-10-16T14:26:54;3.9;;;2.6;;
53674;SDS011;39574;50.534;8.500;2022-10-16T14:31:54;3.7;;;2.0;;
53674;SDS011;39574;50.534;8.500;2022-10-16T14:36:53;3.2;;;1.4;;
53674;SDS011;39574;50.534;8.500;2022-10-16T14:41:54;2.4;;;0.8;;
53674;SDS011;39574;50.534;8.500;2022-10-16T14:46:52;2.6;;;0.8;;
53674;SDS011;39574;50.534;8.500;2022-10-16T14:51:52;2.9;;;0.8;;
53674;SDS011;39574;50.534;8.500;2022-10-16T14:56:52;2.6;;;0.8;;
53674;SDS011;39574;50.534;8.500;2022-10-16T15:01:51;2.9;;;0.7;;
53674;SDS011;39574;50.534;8.500;2022-10-16T15:06:51;3.7;;;0.8;;
53674;SDS011;39574;50.534;8.500;2022-10-16T15:11:50;3.6;;;0.8;;
53674;SDS011;39574;50.534;8.500;2022-10-16T15:16:50;4.0;;;1.6;;
53674;SDS011;39574;50.534;8.500;2022-10-16T15:21:49;6.3;;;3.3;;
53674;SDS011;39574;50.534;8.500;2022-10-16T15:26:49;7.8;;;5.2;;
53674;SDS011;39574;50.534;8.500;2022-10-16T15:31:48;6.9;;;4.7;;
53674;SDS011;39574;50.534;8.500;2022-10-16T15:36:48;5.1;;;3.3;;
53674;SDS011;39574;50.534;8.500;2022-10-16T15:41:47;3.6;;;2.0;;
53674;SDS011;39574;50.534;8.500;2022-10-16T15:46:47;2.9;;;1.3;;
53674;SDS011;39574;50.534;8.500;2022-10-16T15:51:46;4.1;;;1.6;;
53674;SDS011;39574;50.534;8.500;2022-10-16T15:56:46;4.3;;;1.8;;
53674;SDS011;39574;50.534;8.500;2022-10-16T16:01:45;3.8;;;1.6;;
53674;SDS011;39574;50.534;8.500;2022-10-16T16:06:45;4.6;;;2.9;;
53674;SDS011;39574;50.534;8.500;2022-10-16T16:11:44;4.8;;;2.9;;
53674;SDS011;39574;50.534;8.500;2022-10-16T16:16:44;5.1;;;2.7;;
53674;SDS011;39574;50.534;8.500;2022-10-16T16:21:43;4.8;;;2.0;;
53674;SDS011;39574;50.534;8.500;2022-10-16T16:26:43;4.2;;;1.6;;
53674;SDS011;39574;50.534;8.500;2022-10-16T16:31:42;3.7;;;1.5;;
53674;SDS011;39574;50.534;8.500;2022-10-16T16:36:42;4.8;;;2.4;;
53674;SDS011;39574;50.534;8.500;2022-10-16T16:41:41;5.3;;;2.8;;
53674;SDS011;39574;50.534;8.500;2022-10-16T16:46:41;5.4;;;2.6;;
53674;SDS011;39574;50.534;8.500;2022-10-16T16:51:40;6.1;;;2.6;;
53674;SDS011;39574;50.534;8.500;2022-10-16T16:56:40;6.7;;;3.1;;
53674;SDS011;39574;50.534;8.500;2022-10-16T17:01:39;7.8;;;4.6;;
53674;SDS011;39574;50.534;8.500;2022-10-16T17:06:38;8.4;;;5.1;;
53674;SDS011;39574;50.534;8.500;2022-10-16T17:11:38;9.1;;;5.4;;
53674;SDS011;39574;50.534;8.500;2022-10-16T17:16:37;8.3;;;4.7;;
53674;SDS011;39574;50.534;8.500;2022-10-16T17:21:36;9.1;;;5.3;;
53674;SDS011;39574;50.534;8.500;2022-10-16T17:26:36;17.9;;;10.8;;
53674;SDS011;39574;50.534;8.500;2022-10-16T17:31:35;15.7;;;9.7;;
53674;SDS011;39574;50.534;8.500;2022-10-16T17:36:35;13.9;;;9.2;;
53674;SDS011;39574;50.534;8.500;2022-10-16T17:41:34;10.8;;;7.0;;
53674;SDS011;39574;50.534;8.500;2022-10-16T17:46:34;6.6;;;4.4;;
53674;SDS011;39574;50.534;8.500;2022-10-16T17:51:33;5.4;;;3.3;;
53674;SDS011;39574;50.534;8.500;2022-10-16T17:56:32;4.4;;;2.4;;
53674;SDS011;39574;50.534;8.500;2022-10-16T18:01:32;3.8;;;2.1;;
53674;SDS011;39574;50.534;8.500;2022-10-16T18:06:31;5.6;;;3.3;;
53674;SDS011;39574;50.534;8.500;2022-10-16T18:11:30;9.0;;;5.5;;
53674;SDS011;39574;50.534;8.500;2022-10-16T18:21:29;9.1;;;5.8;;
53674;SDS011;39574;50.534;8.500;2022-10-16T18:26:28;9.5;;;6.3;;
53674;SDS011;39574;50.534;8.500;2022-10-16T18:31:28;8.8;;;5.7;;
53674;SDS011;39574;50.534;8.500;2022-10-16T18:36:28;9.3;;;5.3;;
53674;SDS011;39574;50.534;8.500;2022-10-16T18:41:27;13.4;;;6.9;;
53674;SDS011;39574;50.534;8.500;2022-10-16T18:46:27;15.5;;;8.8;;
53674;SDS011;39574;50.534;8.500;2022-10-16T18:51:26;20.8;;;12.4;;
53674;SDS011;39574;50.534;8.500;2022-10-16T18:56:25;21.8;;;13.9;;
53674;SDS011;39574;50.534;8.500;2022-10-16T19:01:25;18.4;;;12.2;;
53674;SDS011;39574;50.534;8.500;2022-10-16T19:06:23;14.4;;;9.0;;
53674;SDS011;39574;50.534;8.500;2022-10-16T19:11:23;13.2;;;8.0;;
53674;SDS011;39574;50.534;8.500;2022-10-16T19:16:22;11.4;;;6.8;;
53674;SDS011;39574;50.534;8.500;2022-10-16T19:21:22;11.5;;;6.8;;
53674;SDS011;39574;50.534;8.500;2022-10-16T19:26:21;12.7;;;7.6;;
53674;SDS011;39574;50.534;8.500;2022-10-16T19:31:21;13.1;;;7.1;;
53674;SDS011;39574;50.534;8.500;2022-10-16T19:36:20;15.9;;;9.3;;
53674;SDS011;39574;50.534;8.500;2022-10-16T19:41:19;13.6;;;7.6;;
53674;SDS011;39574;50.534;8.500;2022-10-16T19:46:19;11.3;;;6.2;;
53674;SDS011;39574;50.534;8.500;2022-10-16T19:51:18;10.0;;;5.6;;
53674;SDS011;39574;50.534;8.500;2022-10-16T19:56:17;7.9;;;4.7;;
53674;SDS011;39574;50.534;8.500;2022-10-16T20:01:17;8.7;;;5.7;;
53674;SDS011;39574;50.534;8.500;2022-10-16T20:06:16;11.5;;;6.8;;
53674;SDS011;39574;50.534;8.500;2022-10-16T20:11:16;12.4;;;6.8;;
53674;SDS011;39574;50.534;8.500;2022-10-16T20:16:14;11.9;;;6.6;;
53674;SDS011;39574;50.534;8.500;2022-10-16T20:21:14;10.9;;;6.1;;
53674;SDS011;39574;50.534;8.500;2022-10-16T20:26:13;9.8;;;5.9;;
53674;SDS011;39574;50.534;8.500;2022-10-16T20:31:13;9.7;;;5.6;;
53674;SDS011;39574;50.534;8.500;2022-10-16T20:36:12;9.9;;;5.2;;
53674;SDS011;39574;50.534;8.500;2022-10-16T20:41:11;9.4;;;5.1;;
53674;SDS011;39574;50.534;8.500;2022-10-16T20:46:11;10.0;;;5.5;;
53674;SDS011;39574;50.534;8.500;2022-10-16T20:51:10;10.5;;;5.4;;
53674;SDS011;39574;50.534;8.500;2022-10-16T20:56:08;11.9;;;6.2;;
53674;SDS011;39574;50.534;8.500;2022-10-16T21:01:08;11.7;;;6.6;;
53674;SDS011;39574;50.534;8.500;2022-10-16T21:06:07;10.7;;;6.2;;
53674;SDS011;39574;50.534;8.500;2022-10-16T21:11:10;12.0;;;7.3;;
53674;SDS011;39574;50.534;8.500;2022-10-16T21:16:06;12.8;;;8.2;;
53674;SDS011;39574;50.534;8.500;2022-10-16T21:21:05;12.2;;;7.9;;
53674;SDS011;39574;50.534;8.500;2022-10-16T21:26:04;11.1;;;7.0;;
53674;SDS011;39574;50.534;8.500;2022-10-16T21:31:11;10.0;;;5.9;;
53674;SDS011;39574;50.534;8.500;2022-10-16T21:36:10;8.6;;;4.7;;
53674;SDS011;39574;50.534;8.500;2022-10-16T21:41:10;8.4;;;4.2;;
53674;SDS011;39574;50.534;8.500;2022-10-16T21:46:01;8.3;;;4.1;;
53674;SDS011;39574;50.534;8.500;2022-10-16T21:51:00;8.0;;;4.2;;
53674;SDS011;39574;50.534;8.500;2022-10-16T21:55:59;7.0;;;4.0;;
53674;SDS011;39574;50.534;8.500;2022-10-16T22:01:04;6.7;;;3.7;;
53674;SDS011;39574;50.534;8.500;2022-10-16T22:05:59;7.3;;;3.8;;
53674;SDS011;39574;50.534;8.500;2022-10-16T22:11:01;7.8;;;3.7;;
53674;SDS011;39574;50.534;8.500;2022-10-16T22:15:57;8.1;;;4.3;;
53674;SDS011;39574;50.534;8.500;2022-10-16T22:20:56;8.1;;;4.9;;
53674;SDS011;39574;50.534;8.500;2022-10-16T22:25:58;8.6;;;5.2;;
53674;SDS011;39574;50.534;8.500;2022-10-16T22:30:54;8.1;;;4.9;;
53674;SDS011;39574;50.534;8.500;2022-10-16T22:35:54;10.5;;;6.0;;
53674;SDS011;39574;50.534;8.500;2022-10-16T22:40:53;10.2;;;6.1;;
53674;SDS011;39574;50.534;8.500;2022-10-16T22:45:52;13.5;;;8.5;;
53674;SDS011;39574;50.534;8.500;2022-10-16T22:50:52;15.6;;;9.9;;
53674;SDS011;39574;50.534;8.500;2022-10-16T22:55:51;17.1;;;10.0;;
53674;SDS011;39574;50.534;8.500;2022-10-16T23:00:50;15.7;;;8.8;;
53674;SDS011;39574;50.534;8.500;2022-10-16T23:05:49;16.8;;;7.7;;
53674;SDS011;39574;50.534;8.500;2022-10-16T23:10:49;19.6;;;7.4;;
53674;SDS011;39574;50.534;8.500;2022-10-16T23:15:48;17.3;;;7.4;;
53674;SDS011;39574;50.534;8.500;2022-10-16T23:20:47;14.5;;;7.2;;
53674;SDS011;39574;50.534;8.500;2022-10-16T23:25:46;18.9;;;6.6;;
53674;SDS011;39574;50.534;8.500;2022-10-16T23:30:46;34.9;;;6.5;;
53674;SDS011;39574;50.534;8.500;2022-10-16T23:35:45;38.1;;;6.3;;
53674;SDS011;39574;50.534;8.500;2022-10-16T23:40:44;28.6;;;5.7;;
53674;SDS011;39574;50.534;8.500;2022-10-16T23:45:43;21.3;;;5.7;;
53674;SDS011;39574;50.534;8.500;2022-10-16T23:50:43;17.7;;;5.8;;
53674;SDS011;39574;50.534;8.500;2022-10-16T23:55:42;12.1;;;5.0;;
